aviador You're here:

TIST Decoded Metar

ST. THOMAS in VIRGIN ISL.
Report Time2018-02-25 10:53:00
UTC Time2018-02-25 11:37:35
Flight Rules vfr VFR
Wind070° at 09 kt
W.Decomp.*RWY 10: 8.6 kt HW 2.6 kt LCW
W.Rank070° ranks 4
Current wind is above 070° avg. (8.0)
Visibility9999 m
Phenomena:N/A
Clouds:Broken 065 Hf
Overcast 080 Hf
Expected CloudBase > 800 ft AGL from Temp-Dew spread
Ceiling6,500 ft
Temp23°C (ISA +8)
Dew Point21°C (89% RH)
QNH1018 hPa
Density Alt1,119 ft
Elevation23 ft
Report Wrong Elevation
Raw Report
TIST 251053Z AUTO 07009KT 10SM BKN065 OVC080 23/21 A3006 RMK AO2
SLP178 T02280211 $=

Extra information for TIST:More info

Metar Taf Metar & Taf Last 4 Metars F.Rules Stats Wind Profile Meteogram Temp Stats Airport Information Weather charts Add Link Nearby VenuesMetar ALERT Operation Metar Decoded Social comments